createdAt,value
2019-01-29T00:01:27.490Z,1.50
2019-01-29T00:03:55.962Z,1.63
2019-01-29T00:06:30.489Z,1.40
2019-01-29T00:08:58.473Z,1.50
2019-01-29T00:11:28.005Z,1.43
2019-01-29T00:13:55.905Z,1.37
2019-01-29T00:16:24.262Z,1.30
2019-01-29T00:18:52.444Z,1.33
2019-01-29T00:21:20.700Z,1.50
2019-01-29T00:23:48.849Z,1.20
2019-01-29T00:26:17.132Z,1.30
2019-01-29T00:28:45.479Z,1.50
2019-01-29T00:31:13.892Z,1.50
2019-01-29T00:33:42.168Z,3.20
2019-01-29T00:36:26.079Z,2.70
2019-01-29T00:38:54.087Z,2.60
2019-01-29T00:41:22.104Z,2.30
2019-01-29T00:43:50.389Z,2.30
2019-01-29T00:46:18.298Z,2.10
2019-01-29T00:48:46.327Z,2.40
2019-01-29T00:51:14.230Z,2.20
2019-01-29T00:53:42.185Z,3.10
2019-01-29T00:56:10.305Z,5.60
2019-01-29T00:58:38.427Z,4.80
2019-01-29T01:01:06.608Z,4.60
2019-01-29T01:03:34.523Z,4.00
2019-01-29T01:06:03.106Z,6.43
2019-01-29T01:08:31.557Z,5.40
2019-01-29T01:10:59.659Z,3.60
2019-01-29T01:13:27.577Z,3.60
2019-01-29T01:15:55.603Z,7.73
2019-01-29T01:18:23.608Z,6.07
2019-01-29T01:20:51.565Z,5.23
2019-01-29T01:23:19.496Z,4.50
2019-01-29T01:25:47.489Z,3.40
2019-01-29T01:28:15.412Z,3.13
2019-01-29T01:30:43.336Z,4.00
2019-01-29T01:33:11.671Z,8.20
2019-01-29T01:35:39.526Z,4.57
2019-01-29T01:38:07.578Z,3.33
2019-01-29T01:40:36.036Z,3.03
2019-01-29T01:43:04.268Z,2.80
2019-01-29T01:45:32.172Z,3.33
2019-01-29T01:48:00.262Z,3.37
2019-01-29T01:50:28.614Z,2.67
2019-01-29T01:52:59.414Z,3.30
2019-01-29T01:55:27.098Z,4.93
2019-01-29T01:57:55.263Z,5.20
2019-01-29T02:00:23.613Z,4.40
2019-01-29T02:02:51.541Z,7.20
2019-01-29T02:05:20.128Z,7.40
2019-01-29T02:07:48.431Z,5.50
2019-01-29T02:10:28.095Z,5.03
2019-01-29T02:12:56.381Z,6.30
2019-01-29T02:15:24.652Z,5.63
2019-01-29T02:17:53.017Z,5.70
2019-01-29T02:20:21.740Z,6.27
2019-01-29T02:22:51.434Z,5.57
2019-01-29T02:25:19.908Z,6.67
2019-01-29T02:27:48.206Z,5.20
2019-01-29T02:30:18.817Z,5.20
2019-01-29T02:32:47.089Z,7.93
2019-01-29T02:35:15.558Z,5.37
2019-01-29T02:37:44.063Z,4.50
2019-01-29T02:40:20.756Z,4.77
2019-01-29T02:42:48.690Z,4.00
2019-01-29T02:45:17.165Z,4.37
2019-01-29T02:47:45.674Z,4.20
2019-01-29T02:50:14.247Z,4.13
2019-01-29T02:52:42.741Z,4.20
2019-01-29T02:55:13.148Z,4.00
2019-01-29T02:57:41.062Z,4.20
2019-01-29T03:00:17.893Z,4.13
2019-01-29T03:02:46.153Z,4.40
2019-01-29T03:05:14.826Z,3.80
2019-01-29T03:07:43.350Z,3.60
2019-01-29T03:10:12.544Z,4.20
2019-01-29T03:12:40.612Z,3.80
2019-01-29T03:15:11.995Z,3.50
2019-01-29T03:17:40.479Z,3.40
2019-01-29T03:20:09.479Z,3.90
2019-01-29T03:22:37.417Z,3.33
2019-01-29T03:25:06.039Z,4.23
2019-01-29T03:27:34.412Z,3.30
2019-01-29T03:30:02.493Z,3.73
2019-01-29T03:32:30.852Z,4.00
2019-01-29T03:34:58.734Z,3.60
2019-01-29T03:37:26.639Z,3.70
2019-01-29T03:39:54.722Z,3.30
2019-01-29T03:42:22.681Z,3.50
2019-01-29T03:44:50.561Z,3.00
2019-01-29T03:47:18.862Z,3.60
2019-01-29T03:49:47.075Z,3.50
2019-01-29T03:52:15.317Z,3.00
2019-01-29T03:54:43.345Z,3.00
2019-01-29T03:57:11.587Z,2.90
2019-01-29T03:59:39.525Z,3.30
2019-01-29T04:02:07.457Z,2.90
2019-01-29T04:04:35.876Z,3.23
2019-01-29T04:07:04.005Z,3.43
2019-01-29T04:09:31.989Z,3.10
2019-01-29T04:12:00.254Z,3.17
2019-01-29T04:14:28.752Z,2.83
2019-01-29T04:16:56.643Z,3.33
2019-01-29T04:19:26.795Z,2.93
2019-01-29T04:21:54.978Z,3.10
2019-01-29T04:24:23.088Z,3.00
2019-01-29T04:26:51.120Z,2.80
2019-01-29T04:29:19.087Z,2.87
2019-01-29T04:31:46.973Z,3.17
2019-01-29T04:34:15.168Z,3.00
2019-01-29T04:36:43.122Z,3.23
2019-01-29T04:39:11.094Z,2.90
2019-01-29T04:41:39.099Z,2.80
2019-01-29T04:44:07.228Z,2.90
2019-01-29T04:46:35.152Z,2.80
2019-01-29T04:49:03.142Z,2.83
2019-01-29T04:51:30.954Z,3.37
2019-01-29T04:53:59.377Z,2.90
2019-01-29T04:56:28.261Z,2.93
2019-01-29T04:58:56.156Z,2.67
2019-01-29T05:01:24.136Z,2.70
2019-01-29T05:03:52.136Z,2.50
2019-01-29T05:06:20.062Z,2.80
2019-01-29T05:08:48.017Z,2.57
2019-01-29T05:11:21.362Z,3.10
2019-01-29T05:13:49.348Z,2.87
2019-01-29T05:16:17.293Z,3.00
2019-01-29T05:18:45.335Z,2.97
2019-01-29T05:21:13.341Z,3.27
2019-01-29T05:23:41.293Z,3.13
2019-01-29T05:26:09.173Z,3.10
2019-01-29T05:28:37.060Z,3.20
2019-01-29T05:31:05.055Z,2.80
2019-01-29T05:33:33.388Z,2.97
2019-01-29T05:36:01.301Z,3.00
2019-01-29T05:38:29.906Z,3.03
2019-01-29T05:40:58.214Z,3.20
2019-01-29T05:43:26.178Z,3.80
2019-01-29T05:45:54.385Z,4.70
2019-01-29T05:48:22.408Z,5.00
2019-01-29T05:50:50.261Z,4.30
2019-01-29T05:53:18.259Z,4.03
2019-01-29T05:55:46.272Z,3.67
2019-01-29T05:58:14.144Z,3.50
2019-01-29T06:00:42.115Z,3.10
2019-01-29T06:03:10.083Z,2.90
2019-01-29T06:05:38.267Z,3.17
2019-01-29T06:08:06.350Z,3.20
2019-01-29T06:10:34.499Z,3.27
2019-01-29T06:13:02.480Z,3.37
2019-01-29T06:15:30.751Z,3.57
2019-01-29T06:17:58.753Z,3.73
2019-01-29T06:20:27.132Z,4.07
2019-01-29T06:22:55.542Z,3.53
2019-01-29T06:25:24.022Z,4.20
2019-01-29T06:27:52.171Z,4.67
2019-01-29T06:30:20.817Z,4.33
2019-01-29T06:32:49.036Z,4.57
2019-01-29T06:35:18.009Z,4.67
2019-01-29T06:37:46.252Z,4.47
2019-01-29T06:40:16.643Z,5.20
2019-01-29T06:42:44.945Z,5.57
2019-01-29T06:45:14.208Z,5.60
2019-01-29T06:47:42.397Z,4.83
2019-01-29T06:50:12.887Z,4.50
2019-01-29T06:52:40.768Z,4.23
2019-01-29T06:55:10.722Z,3.93
2019-01-29T06:57:38.614Z,3.90
2019-01-29T07:00:09.250Z,3.50
2019-01-29T07:02:37.468Z,3.43
2019-01-29T07:05:06.149Z,3.37
2019-01-29T07:07:34.018Z,3.40
2019-01-29T07:10:02.005Z,3.53
2019-01-29T07:12:29.954Z,3.63
2019-01-29T07:14:57.878Z,4.10
2019-01-29T07:17:31.424Z,4.57
2019-01-29T07:20:02.359Z,4.27
2019-01-29T07:22:30.408Z,4.30
2019-01-29T07:24:58.401Z,5.57
2019-01-29T07:27:26.489Z,5.57
2019-01-29T07:29:54.831Z,5.60
2019-01-29T07:32:22.717Z,4.90
2019-01-29T07:34:50.655Z,6.60
2019-01-29T07:37:22.022Z,7.30
2019-01-29T07:39:49.191Z,7.87
2019-01-29T07:42:17.522Z,10.43
2019-01-29T07:44:45.834Z,15.20
2019-01-29T07:47:14.320Z,16.57
2019-01-29T07:49:42.429Z,12.63
2019-01-29T07:52:10.390Z,13.00
2019-01-29T07:54:38.422Z,13.13
2019-01-29T07:57:06.362Z,13.10
2019-01-29T07:59:34.337Z,11.13
2019-01-29T08:02:02.362Z,7.57
2019-01-29T08:04:30.210Z,8.00
2019-01-29T08:06:58.190Z,12.73
2019-01-29T08:09:26.108Z,11.00
2019-01-29T08:11:54.154Z,9.10
2019-01-29T08:14:39.209Z,11.00
2019-01-29T08:17:07.362Z,10.70
2019-01-29T08:19:35.323Z,11.97
2019-01-29T08:22:03.513Z,18.80
2019-01-29T08:24:31.922Z,21.90
2019-01-29T08:27:00.006Z,6.50
2019-01-29T08:29:28.064Z,6.33
2019-01-29T08:31:55.988Z,5.57
2019-01-29T08:34:23.903Z,7.43
2019-01-29T08:36:51.804Z,8.17
2019-01-29T08:39:19.790Z,6.00
2019-01-29T08:41:47.772Z,6.13
2019-01-29T08:44:15.878Z,5.63
2019-01-29T08:46:43.836Z,7.90
2019-01-29T08:49:11.932Z,5.50
2019-01-29T08:51:39.981Z,5.23
2019-01-29T08:54:08.318Z,4.77
2019-01-29T08:56:36.299Z,6.20
2019-01-29T08:59:04.284Z,6.43
2019-01-29T09:01:32.324Z,6.57
2019-01-29T09:04:00.316Z,5.03
2019-01-29T09:06:30.374Z,5.07
2019-01-29T09:08:58.489Z,3.97
2019-01-29T09:11:28.102Z,4.57
2019-01-29T09:13:56.119Z,4.67
2019-01-29T09:16:24.159Z,4.27
2019-01-29T09:18:52.405Z,4.70
2019-01-29T09:21:20.302Z,4.97
2019-01-29T09:23:48.289Z,4.30
2019-01-29T09:26:16.205Z,4.47
2019-01-29T09:28:44.109Z,4.97
2019-01-29T09:31:12.032Z,4.60
2019-01-29T09:33:40.362Z,4.23
2019-01-29T09:36:08.225Z,7.83
2019-01-29T09:38:36.206Z,5.60
2019-01-29T09:41:04.484Z,4.80
2019-01-29T09:43:32.433Z,4.30
2019-01-29T09:46:12.837Z,4.47
2019-01-29T09:48:41.476Z,6.10
2019-01-29T09:51:09.805Z,5.07
2019-01-29T09:53:38.342Z,4.60
2019-01-29T09:56:06.538Z,4.50
2019-01-29T09:58:34.502Z,4.50
2019-01-29T10:01:02.859Z,4.33
2019-01-29T10:03:31.423Z,4.20
2019-01-29T10:05:59.399Z,4.60
2019-01-29T10:08:27.814Z,4.53
2019-01-29T10:10:55.767Z,4.70
2019-01-29T10:13:23.971Z,4.27
2019-01-29T10:15:52.138Z,3.80
2019-01-29T10:18:20.521Z,3.97
2019-01-29T10:20:49.008Z,3.90
2019-01-29T10:23:17.416Z,4.77
2019-01-29T10:25:45.823Z,7.87
2019-01-29T10:28:14.250Z,5.80
2019-01-29T10:30:42.781Z,3.90
2019-01-29T10:33:11.319Z,3.70
2019-01-29T10:35:39.641Z,4.00
2019-01-29T10:38:07.924Z,3.53
2019-01-29T10:40:36.068Z,3.20
2019-01-29T10:43:04.756Z,3.00
2019-01-29T10:45:33.059Z,2.60
2019-01-29T10:48:01.589Z,1.90
2019-01-29T10:50:30.372Z,2.00
2019-01-29T10:52:58.874Z,1.63
2019-01-29T10:55:27.404Z,1.63
2019-01-29T10:57:55.948Z,2.00
2019-01-29T11:00:26.908Z,2.23
2019-01-29T11:02:55.340Z,2.30
2019-01-29T11:05:24.255Z,2.47
2019-01-29T11:07:52.607Z,1.93
2019-01-29T11:10:21.341Z,2.10
2019-01-29T11:12:49.326Z,1.60
2019-01-29T11:15:31.994Z,2.10
2019-01-29T11:18:00.680Z,2.17
2019-01-29T11:20:29.341Z,1.87
2019-01-29T11:22:57.645Z,3.17
2019-01-29T11:25:27.402Z,4.30
2019-01-29T11:27:55.816Z,5.53
2019-01-29T11:30:26.388Z,4.07
2019-01-29T11:32:54.605Z,3.10
2019-01-29T11:35:22.961Z,2.53
2019-01-29T11:37:51.048Z,2.37
2019-01-29T11:40:21.198Z,1.87
2019-01-29T11:42:49.257Z,2.33
2019-01-29T11:45:24.201Z,2.10
2019-01-29T11:47:52.407Z,2.20
2019-01-29T11:50:20.547Z,1.93
2019-01-29T11:52:48.535Z,2.10
2019-01-29T11:55:16.727Z,3.00
2019-01-29T11:57:44.709Z,7.70
2019-01-29T12:00:18.586Z,6.10
2019-01-29T12:02:46.524Z,2.87
2019-01-29T12:05:14.943Z,2.20
2019-01-29T12:07:43.089Z,2.53
2019-01-29T12:10:12.279Z,4.97
2019-01-29T12:12:40.184Z,3.00
2019-01-29T12:15:34.001Z,2.90
2019-01-29T12:18:02.502Z,3.07
2019-01-29T12:20:30.958Z,2.80
2019-01-29T12:22:59.369Z,2.20
2019-01-29T12:25:27.800Z,4.43
2019-01-29T12:27:55.889Z,3.73
2019-01-29T12:30:24.677Z,2.00
2019-01-29T12:32:53.132Z,2.00
2019-01-29T12:35:21.273Z,3.07
2019-01-29T12:37:49.625Z,2.90
2019-01-29T12:40:17.796Z,2.90
2019-01-29T12:42:46.058Z,3.97
2019-01-29T12:45:14.711Z,3.77
2019-01-29T12:47:42.949Z,2.90
2019-01-29T12:50:15.107Z,3.90
2019-01-29T12:53:11.676Z,3.43
2019-01-29T12:55:40.271Z,4.50
2019-01-29T12:58:08.344Z,11.10
2019-01-29T13:00:43.209Z,8.13
2019-01-29T13:03:11.121Z,4.37
2019-01-29T13:05:39.053Z,3.00
2019-01-29T13:08:07.102Z,2.63
2019-01-29T13:10:35.187Z,2.50
2019-01-29T13:13:04.024Z,5.67
2019-01-29T13:15:50.320Z,7.33
2019-01-29T13:18:37.637Z,5.87
2019-01-29T13:21:06.004Z,3.03
2019-01-29T13:23:34.004Z,2.47
2019-01-29T13:26:01.944Z,3.40
2019-01-29T13:28:29.922Z,3.50
2019-01-29T13:31:37.905Z,2.70
2019-01-29T13:34:05.861Z,4.33
2019-01-29T13:36:33.934Z,7.50
2019-01-29T13:39:01.975Z,5.60
2019-01-29T13:41:30.436Z,2.83
2019-01-29T13:43:58.338Z,1.80
2019-01-29T13:46:27.643Z,3.33
2019-01-29T13:48:55.692Z,2.17
2019-01-29T13:51:24.067Z,2.20
2019-01-29T13:53:51.960Z,1.90
2019-01-29T13:56:20.572Z,1.83
2019-01-29T13:58:48.529Z,1.33
2019-01-29T14:01:16.737Z,1.50
2019-01-29T14:03:44.971Z,1.67
2019-01-29T14:06:13.305Z,1.40
2019-01-29T14:08:41.225Z,1.90
2019-01-29T14:11:14.096Z,2.20
2019-01-29T14:13:42.518Z,2.63
2019-01-29T14:16:12.705Z,3.00
2019-01-29T14:18:40.601Z,2.30
2019-01-29T14:21:08.618Z,1.90
2019-01-29T14:23:36.578Z,1.70
2019-01-29T14:26:04.772Z,2.40
2019-01-29T14:28:32.805Z,2.80
2019-01-29T14:31:00.734Z,2.47
2019-01-29T14:33:29.168Z,2.40
2019-01-29T14:35:58.253Z,2.10
2019-01-29T14:39:09.072Z,3.00
2019-01-29T14:41:37.050Z,2.93
2019-01-29T14:44:07.668Z,2.60
2019-01-29T14:46:35.627Z,1.87
2019-01-29T14:49:03.873Z,2.07
2019-01-29T14:51:32.064Z,2.80
2019-01-29T14:54:00.464Z,3.13
2019-01-29T14:56:30.099Z,2.33
2019-01-29T14:58:58.545Z,2.87
2019-01-29T15:01:28.056Z,1.73
2019-01-29T15:03:56.426Z,1.40
2019-01-29T15:06:32.296Z,1.63
2019-01-29T15:08:54.756Z,2.00
2019-01-29T15:11:24.501Z,2.07
2019-01-29T15:13:52.713Z,1.97
2019-01-29T15:16:43.083Z,2.90
2019-01-29T15:19:14.100Z,2.27
2019-01-29T15:21:42.152Z,3.47
2019-01-29T15:24:10.610Z,3.60
2019-01-29T15:26:39.004Z,4.30
2019-01-29T15:29:06.913Z,7.73
2019-01-29T15:31:35.367Z,7.10
2019-01-29T15:34:03.851Z,5.67
2019-01-29T15:36:32.223Z,7.70
2019-01-29T15:39:00.282Z,6.10
2019-01-29T15:41:29.906Z,29.87
2019-01-29T15:43:57.784Z,8.27
2019-01-29T15:46:25.864Z,3.30
2019-01-29T15:48:54.190Z,10.27
2019-01-29T15:51:22.595Z,3.83
2019-01-29T15:53:50.592Z,2.00
2019-01-29T15:56:18.934Z,1.40
2019-01-29T15:58:47.330Z,8.77
2019-01-29T16:01:15.694Z,5.30
2019-01-29T16:03:43.989Z,6.03
2019-01-29T16:06:11.857Z,15.10
2019-01-29T16:08:39.849Z,17.47
2019-01-29T16:11:07.827Z,18.63
2019-01-29T16:13:35.899Z,25.63
2019-01-29T16:16:24.800Z,27.73
2019-01-29T16:18:52.717Z,31.13
2019-01-29T16:21:20.773Z,25.77
2019-01-29T16:23:48.613Z,23.73
2019-01-29T16:26:16.551Z,18.43
2019-01-29T16:28:44.923Z,18.37
2019-01-29T16:31:13.383Z,20.47
2019-01-29T16:33:41.417Z,19.00
2019-01-29T16:36:09.439Z,18.03
2019-01-29T16:38:37.710Z,25.40
2019-01-29T16:41:05.963Z,29.43
2019-01-29T16:43:34.233Z,48.50
2019-01-29T16:46:02.695Z,67.37
2019-01-29T16:48:31.098Z,43.13
2019-01-29T16:50:59.128Z,31.20
2019-01-29T16:53:27.663Z,30.77
2019-01-29T16:55:55.909Z,27.97
2019-01-29T16:58:24.396Z,20.63
2019-01-29T17:00:52.634Z,28.37
2019-01-29T17:03:20.904Z,37.83
2019-01-29T17:05:49.341Z,25.03
2019-01-29T17:08:17.514Z,17.63
2019-01-29T17:10:45.423Z,15.90
2019-01-29T17:13:13.512Z,15.87
2019-01-29T17:16:24.358Z,19.70
2019-01-29T17:18:50.513Z,18.13
2019-01-29T17:21:18.918Z,18.70
2019-01-29T17:23:46.968Z,16.60
2019-01-29T17:26:15.297Z,24.07
2019-01-29T17:28:43.164Z,33.80
2019-01-29T17:31:11.193Z,29.10
2019-01-29T17:33:40.419Z,25.90
2019-01-29T17:36:09.297Z,21.53
2019-01-29T17:38:44.380Z,17.70
2019-01-29T17:41:06.971Z,18.47
2019-01-29T17:43:35.259Z,23.67
2019-01-29T17:46:03.731Z,29.60
2019-01-29T17:48:32.148Z,30.43
2019-01-29T17:51:00.539Z,28.57
2019-01-29T17:53:28.876Z,27.10
2019-01-29T17:55:57.195Z,20.43
2019-01-29T17:58:25.737Z,17.03
2019-01-29T18:00:57.136Z,16.20
2019-01-29T18:03:25.502Z,16.60
2019-01-29T18:05:53.886Z,17.97
2019-01-29T18:08:22.197Z,16.03
2019-01-29T18:10:50.479Z,14.90
2019-01-29T18:13:18.941Z,14.67
2019-01-29T18:16:28.007Z,14.93
2019-01-29T18:18:54.665Z,13.33
2019-01-29T18:21:23.150Z,17.87
2019-01-29T18:23:51.550Z,25.57
2019-01-29T18:26:19.875Z,35.13
2019-01-29T18:28:52.849Z,35.30
2019-01-29T18:31:21.312Z,27.30
2019-01-29T18:33:49.690Z,19.17
2019-01-29T18:36:17.773Z,17.77
2019-01-29T18:38:46.018Z,16.60
2019-01-29T18:41:14.284Z,15.27
2019-01-29T18:43:42.680Z,18.67
2019-01-29T18:46:10.996Z,18.97
2019-01-29T18:48:38.965Z,19.80
2019-01-29T18:51:06.930Z,23.23
2019-01-29T18:53:34.818Z,24.53
2019-01-29T18:56:02.946Z,23.87
2019-01-29T18:58:30.920Z,22.57
2019-01-29T19:00:58.868Z,19.13
2019-01-29T19:03:26.807Z,17.50
2019-01-29T19:05:54.934Z,12.03
2019-01-29T19:08:23.049Z,8.60
2019-01-29T19:10:51.145Z,9.60
2019-01-29T19:13:19.255Z,10.23
2019-01-29T19:16:35.500Z,10.60
2019-01-29T19:19:01.307Z,10.47
2019-01-29T19:21:30.685Z,10.57
2019-01-29T19:23:58.896Z,9.37
2019-01-29T19:26:28.433Z,9.37
2019-01-29T19:28:56.387Z,10.33
2019-01-29T19:31:24.387Z,9.90
2019-01-29T19:33:52.307Z,9.50
2019-01-29T19:36:20.225Z,9.07
2019-01-29T19:38:48.615Z,12.93
2019-01-29T19:41:16.700Z,17.20
2019-01-29T19:43:45.248Z,19.97
2019-01-29T19:46:13.192Z,13.37
2019-01-29T19:48:41.191Z,14.27
2019-01-29T19:51:09.391Z,16.33
2019-01-29T19:53:37.906Z,51.17
2019-01-29T19:56:05.994Z,36.63
2019-01-29T19:58:33.964Z,31.30
2019-01-29T20:01:02.198Z,42.43
2019-01-29T20:03:30.222Z,32.97
2019-01-29T20:05:58.373Z,17.47
2019-01-29T20:08:27.118Z,13.10
2019-01-29T20:10:54.981Z,11.57
2019-01-29T20:13:23.188Z,10.70
2019-01-29T20:16:18.107Z,9.87
2019-01-29T20:18:48.910Z,11.43
2019-01-29T20:21:16.408Z,12.27
2019-01-29T20:23:44.401Z,10.73
2019-01-29T20:26:12.466Z,9.20
2019-01-29T20:28:42.375Z,7.83
2019-01-29T20:31:10.282Z,6.80
2019-01-29T20:33:38.448Z,5.77
2019-01-29T20:36:06.827Z,5.90
2019-01-29T20:38:35.440Z,6.23
2019-01-29T20:41:03.820Z,5.83
2019-01-29T20:43:31.922Z,5.57
2019-01-29T20:46:00.350Z,5.00
2019-01-29T20:48:28.558Z,5.67
2019-01-29T20:50:56.630Z,6.73
2019-01-29T20:53:24.477Z,7.00
2019-01-29T20:55:52.434Z,5.97
2019-01-29T20:58:20.426Z,4.87
2019-01-29T21:00:48.369Z,5.13
2019-01-29T21:03:16.356Z,5.33
2019-01-29T21:05:44.705Z,5.30
2019-01-29T21:08:12.713Z,5.30
2019-01-29T21:10:40.770Z,4.73
2019-01-29T21:13:10.834Z,5.33
2019-01-29T21:16:20.432Z,5.83
2019-01-29T21:18:46.550Z,6.30
2019-01-29T21:21:14.956Z,6.00
2019-01-29T21:23:43.142Z,7.87
2019-01-29T21:26:57.629Z,7.70
2019-01-29T21:29:23.074Z,6.63
2019-01-29T21:31:51.066Z,6.90
2019-01-29T21:34:19.023Z,6.57
2019-01-29T21:36:47.220Z,6.87
2019-01-29T21:39:15.109Z,7.83
2019-01-29T21:41:42.963Z,10.23
2019-01-29T21:44:11.320Z,9.17
2019-01-29T21:46:39.632Z,8.57
2019-01-29T21:49:07.983Z,6.97
2019-01-29T21:51:35.968Z,7.90
2019-01-29T21:54:04.994Z,7.60
2019-01-29T21:56:33.217Z,7.33
2019-01-29T21:59:01.278Z,6.33
2019-01-29T22:01:31.084Z,5.80
2019-01-29T22:03:59.055Z,4.67
2019-01-29T22:06:28.747Z,5.07
2019-01-29T22:08:57.109Z,5.77
2019-01-29T22:11:25.523Z,6.33
2019-01-29T22:13:54.946Z,6.83
2019-01-29T22:16:57.194Z,6.30
2019-01-29T22:19:25.717Z,5.20
2019-01-29T22:21:53.926Z,4.73
2019-01-29T22:24:22.285Z,4.20
2019-01-29T22:26:50.225Z,3.73
2019-01-29T22:29:23.266Z,4.17
2019-01-29T22:31:48.079Z,4.10
2019-01-29T22:34:16.026Z,3.97
2019-01-29T22:36:43.984Z,3.53
2019-01-29T22:39:11.910Z,3.47
2019-01-29T22:41:40.235Z,3.97
2019-01-29T22:44:08.196Z,4.20
2019-01-29T22:46:36.283Z,4.70
2019-01-29T22:49:05.172Z,4.27
2019-01-29T22:51:33.993Z,4.40
2019-01-29T22:54:02.056Z,5.37
2019-01-29T22:56:30.639Z,5.30
2019-01-29T22:58:58.955Z,5.00
2019-01-29T23:01:34.122Z,4.47
2019-01-29T23:04:31.746Z,4.70
2019-01-29T23:07:17.192Z,4.50
2019-01-29T23:09:45.187Z,5.07
2019-01-29T23:12:13.484Z,4.57
2019-01-29T23:14:41.736Z,4.90
2019-01-29T23:17:09.997Z,5.10
2019-01-29T23:19:38.340Z,5.10
2019-01-29T23:22:06.613Z,5.23
2019-01-29T23:24:34.765Z,4.50
2019-01-29T23:27:02.976Z,3.80
2019-01-29T23:29:31.083Z,4.20
2019-01-29T23:31:59.019Z,4.70
2019-01-29T23:34:26.937Z,6.30
2019-01-29T23:36:55.250Z,4.90
2019-01-29T23:39:23.184Z,3.60
2019-01-29T23:41:51.130Z,3.50
2019-01-29T23:44:18.976Z,3.50
2019-01-29T23:46:46.948Z,3.47
2019-01-29T23:49:14.883Z,3.40
2019-01-29T23:51:42.826Z,3.57
2019-01-29T23:54:10.806Z,3.30
2019-01-29T23:56:38.753Z,3.23
2019-01-29T23:59:07.167Z,3.53
